sensor_id;sensor_type;location;lat;lon;timestamp;P1;durP1;ratioP1;P2;durP2;ratioP2
45103;SDS011;30865;51.288;4.572;2022-12-07T00:01:09;10.75;;;5.97;;
45103;SDS011;30865;51.288;4.572;2022-12-07T00:03:37;6.55;;;5.32;;
45103;SDS011;30865;51.288;4.572;2022-12-07T00:06:04;11.63;;;5.28;;
45103;SDS011;30865;51.288;4.572;2022-12-07T00:08:33;8.23;;;5.13;;
45103;SDS011;30865;51.288;4.572;2022-12-07T00:11:03;11.55;;;5.18;;
45103;SDS011;30865;51.288;4.572;2022-12-07T00:13:32;10.18;;;5.60;;
45103;SDS011;30865;51.288;4.572;2022-12-07T00:16:00;8.20;;;5.43;;
45103;SDS011;30865;51.288;4.572;2022-12-07T00:18:30;10.13;;;5.80;;
45103;SDS011;30865;51.288;4.572;2022-12-07T00:21:05;10.43;;;5.50;;
45103;SDS011;30865;51.288;4.572;2022-12-07T00:23:39;7.43;;;5.38;;
45103;SDS011;30865;51.288;4.572;2022-12-07T00:26:12;11.07;;;5.90;;
45103;SDS011;30865;51.288;4.572;2022-12-07T00:28:49;8.15;;;5.40;;
45103;SDS011;30865;51.288;4.572;2022-12-07T00:31:16;8.73;;;5.22;;
45103;SDS011;30865;51.288;4.572;2022-12-07T00:33:43;9.43;;;6.45;;
45103;SDS011;30865;51.288;4.572;2022-12-07T00:36:10;7.88;;;5.55;;
45103;SDS011;30865;51.288;4.572;2022-12-07T00:38:40;9.65;;;6.35;;
45103;SDS011;30865;51.288;4.572;2022-12-07T00:41:17;9.88;;;6.20;;
45103;SDS011;30865;51.288;4.572;2022-12-07T00:43:44;7.20;;;5.03;;
45103;SDS011;30865;51.288;4.572;2022-12-07T00:46:11;9.60;;;5.68;;
45103;SDS011;30865;51.288;4.572;2022-12-07T00:48:37;8.43;;;5.57;;
45103;SDS011;30865;51.288;4.572;2022-12-07T00:51:03;9.75;;;6.80;;
45103;SDS011;30865;51.288;4.572;2022-12-07T00:53:29;8.63;;;5.70;;
45103;SDS011;30865;51.288;4.572;2022-12-07T00:55:55;9.10;;;5.93;;
45103;SDS011;30865;51.288;4.572;2022-12-07T00:58:21;9.88;;;6.72;;
45103;SDS011;30865;51.288;4.572;2022-12-07T01:00:48;11.25;;;6.38;;
45103;SDS011;30865;51.288;4.572;2022-12-07T01:03:15;11.38;;;6.22;;
45103;SDS011;30865;51.288;4.572;2022-12-07T01:05:48;9.60;;;6.32;;
45103;SDS011;30865;51.288;4.572;2022-12-07T01:08:15;9.70;;;5.45;;
45103;SDS011;30865;51.288;4.572;2022-12-07T01:10:40;9.13;;;6.45;;
45103;SDS011;30865;51.288;4.572;2022-12-07T01:13:06;7.82;;;5.65;;
45103;SDS011;30865;51.288;4.572;2022-12-07T01:15:31;10.77;;;6.50;;
45103;SDS011;30865;51.288;4.572;2022-12-07T01:17:57;8.55;;;5.35;;
45103;SDS011;30865;51.288;4.572;2022-12-07T01:20:22;9.60;;;6.05;;
45103;SDS011;30865;51.288;4.572;2022-12-07T01:22:48;8.73;;;5.68;;
45103;SDS011;30865;51.288;4.572;2022-12-07T01:25:13;8.48;;;5.60;;
45103;SDS011;30865;51.288;4.572;2022-12-07T01:27:39;9.93;;;6.60;;
45103;SDS011;30865;51.288;4.572;2022-12-07T01:30:05;11.93;;;6.75;;
45103;SDS011;30865;51.288;4.572;2022-12-07T01:32:31;10.02;;;6.25;;
45103;SDS011;30865;51.288;4.572;2022-12-07T01:34:57;12.93;;;6.90;;
45103;SDS011;30865;51.288;4.572;2022-12-07T01:37:23;10.93;;;6.63;;
45103;SDS011;30865;51.288;4.572;2022-12-07T01:39:49;11.48;;;6.70;;
45103;SDS011;30865;51.288;4.572;2022-12-07T01:42:15;14.48;;;6.93;;
45103;SDS011;30865;51.288;4.572;2022-12-07T01:47:55;12.07;;;6.93;;
45103;SDS011;30865;51.288;4.572;2022-12-07T01:50:23;11.10;;;6.75;;
45103;SDS011;30865;51.288;4.572;2022-12-07T01:52:51;11.98;;;6.90;;
45103;SDS011;30865;51.288;4.572;2022-12-07T01:55:18;11.27;;;6.93;;
45103;SDS011;30865;51.288;4.572;2022-12-07T01:57:46;9.68;;;6.80;;
45103;SDS011;30865;51.288;4.572;2022-12-07T02:00:14;13.20;;;6.88;;
45103;SDS011;30865;51.288;4.572;2022-12-07T02:02:44;10.43;;;6.50;;
45103;SDS011;30865;51.288;4.572;2022-12-07T02:05:30;9.93;;;6.25;;
45103;SDS011;30865;51.288;4.572;2022-12-07T02:07:57;11.40;;;6.95;;
45103;SDS011;30865;51.288;4.572;2022-12-07T02:10:24;11.35;;;6.95;;
45103;SDS011;30865;51.288;4.572;2022-12-07T02:12:54;9.07;;;6.28;;
45103;SDS011;30865;51.288;4.572;2022-12-07T02:15:34;11.10;;;6.47;;
45103;SDS011;30865;51.288;4.572;2022-12-07T02:23:40;11.70;;;6.72;;
45103;SDS011;30865;51.288;4.572;2022-12-07T02:29:27;14.35;;;6.50;;
45103;SDS011;30865;51.288;4.572;2022-12-07T02:32:03;11.38;;;6.45;;
45103;SDS011;30865;51.288;4.572;2022-12-07T02:34:35;10.38;;;6.38;;
45103;SDS011;30865;51.288;4.572;2022-12-07T02:42:50;9.63;;;6.10;;
45103;SDS011;30865;51.288;4.572;2022-12-07T02:45:21;10.80;;;6.57;;
45103;SDS011;30865;51.288;4.572;2022-12-07T02:47:51;10.98;;;6.97;;
45103;SDS011;30865;51.288;4.572;2022-12-07T02:50:20;11.90;;;6.75;;
45103;SDS011;30865;51.288;4.572;2022-12-07T02:52:46;10.23;;;6.50;;
45103;SDS011;30865;51.288;4.572;2022-12-07T02:55:12;9.77;;;6.30;;
45103;SDS011;30865;51.288;4.572;2022-12-07T02:57:45;10.02;;;6.53;;
45103;SDS011;30865;51.288;4.572;2022-12-07T03:00:22;10.05;;;6.63;;
45103;SDS011;30865;51.288;4.572;2022-12-07T03:02:50;12.02;;;6.72;;
45103;SDS011;30865;51.288;4.572;2022-12-07T03:05:34;15.55;;;6.10;;
45103;SDS011;30865;51.288;4.572;2022-12-07T03:11:00;11.55;;;6.13;;
45103;SDS011;30865;51.288;4.572;2022-12-07T03:16:23;10.35;;;6.45;;
45103;SDS011;30865;51.288;4.572;2022-12-07T03:19:00;7.60;;;5.50;;
45103;SDS011;30865;51.288;4.572;2022-12-07T03:21:32;10.85;;;6.03;;
45103;SDS011;30865;51.288;4.572;2022-12-07T03:24:03;7.00;;;4.72;;
45103;SDS011;30865;51.288;4.572;2022-12-07T03:26:32;8.15;;;5.68;;
45103;SDS011;30865;51.288;4.572;2022-12-07T03:29:01;13.60;;;6.22;;
45103;SDS011;30865;51.288;4.572;2022-12-07T03:31:32;9.75;;;5.82;;
45103;SDS011;30865;51.288;4.572;2022-12-07T03:34:10;7.32;;;5.30;;
45103;SDS011;30865;51.288;4.572;2022-12-07T03:36:53;10.30;;;5.78;;
45103;SDS011;30865;51.288;4.572;2022-12-07T03:39:44;9.10;;;6.13;;
45103;SDS011;30865;51.288;4.572;2022-12-07T03:42:21;12.23;;;5.85;;
45103;SDS011;30865;51.288;4.572;2022-12-07T03:44:47;10.63;;;6.45;;
45103;SDS011;30865;51.288;4.572;2022-12-07T03:47:19;10.55;;;6.22;;
45103;SDS011;30865;51.288;4.572;2022-12-07T03:50:00;13.23;;;6.55;;
45103;SDS011;30865;51.288;4.572;2022-12-07T03:52:51;14.00;;;7.18;;
45103;SDS011;30865;51.288;4.572;2022-12-07T03:55:23;14.00;;;6.15;;
45103;SDS011;30865;51.288;4.572;2022-12-07T03:57:54;11.20;;;5.43;;
45103;SDS011;30865;51.288;4.572;2022-12-07T04:02:51;8.85;;;5.60;;
45103;SDS011;30865;51.288;4.572;2022-12-07T04:05:17;11.35;;;6.13;;
45103;SDS011;30865;51.288;4.572;2022-12-07T04:07:43;10.20;;;6.30;;
45103;SDS011;30865;51.288;4.572;2022-12-07T04:10:09;9.60;;;6.03;;
45103;SDS011;30865;51.288;4.572;2022-12-07T04:12:35;10.05;;;5.53;;
45103;SDS011;30865;51.288;4.572;2022-12-07T04:15:00;10.43;;;6.63;;
45103;SDS011;30865;51.288;4.572;2022-12-07T04:17:26;11.63;;;6.43;;
45103;SDS011;30865;51.288;4.572;2022-12-07T04:19:51;13.30;;;6.40;;
45103;SDS011;30865;51.288;4.572;2022-12-07T04:22:17;12.70;;;7.30;;
45103;SDS011;30865;51.288;4.572;2022-12-07T04:24:42;12.02;;;7.22;;
45103;SDS011;30865;51.288;4.572;2022-12-07T04:27:08;12.00;;;6.18;;
45103;SDS011;30865;51.288;4.572;2022-12-07T04:29:33;11.90;;;7.30;;
45103;SDS011;30865;51.288;4.572;2022-12-07T04:31:59;10.65;;;5.85;;
45103;SDS011;30865;51.288;4.572;2022-12-07T04:34:25;14.57;;;8.25;;
45103;SDS011;30865;51.288;4.572;2022-12-07T04:36:50;13.30;;;6.93;;
45103;SDS011;30865;51.288;4.572;2022-12-07T04:39:20;14.82;;;8.18;;
45103;SDS011;30865;51.288;4.572;2022-12-07T04:41:51;12.20;;;6.85;;
45103;SDS011;30865;51.288;4.572;2022-12-07T04:44:17;13.82;;;7.47;;
45103;SDS011;30865;51.288;4.572;2022-12-07T04:46:43;9.85;;;6.18;;
45103;SDS011;30865;51.288;4.572;2022-12-07T04:49:08;13.38;;;7.20;;
45103;SDS011;30865;51.288;4.572;2022-12-07T04:51:34;12.80;;;6.35;;
45103;SDS011;30865;51.288;4.572;2022-12-07T04:54:00;16.67;;;7.38;;
45103;SDS011;30865;51.288;4.572;2022-12-07T04:56:25;13.60;;;6.78;;
45103;SDS011;30865;51.288;4.572;2022-12-07T04:58:51;24.05;;;8.63;;
45103;SDS011;30865;51.288;4.572;2022-12-07T05:01:18;10.07;;;6.90;;
45103;SDS011;30865;51.288;4.572;2022-12-07T05:03:44;15.88;;;7.72;;
45103;SDS011;30865;51.288;4.572;2022-12-07T05:06:10;11.85;;;6.50;;
45103;SDS011;30865;51.288;4.572;2022-12-07T05:08:37;13.57;;;7.10;;
45103;SDS011;30865;51.288;4.572;2022-12-07T05:11:03;18.70;;;7.45;;
45103;SDS011;30865;51.288;4.572;2022-12-07T05:13:30;16.52;;;8.32;;
45103;SDS011;30865;51.288;4.572;2022-12-07T05:15:55;11.18;;;7.38;;
45103;SDS011;30865;51.288;4.572;2022-12-07T05:18:21;16.15;;;6.45;;
45103;SDS011;30865;51.288;4.572;2022-12-07T05:20:46;15.85;;;7.05;;
45103;SDS011;30865;51.288;4.572;2022-12-07T05:23:12;14.88;;;6.85;;
45103;SDS011;30865;51.288;4.572;2022-12-07T05:25:38;10.68;;;6.35;;
45103;SDS011;30865;51.288;4.572;2022-12-07T05:28:04;13.15;;;6.20;;
45103;SDS011;30865;51.288;4.572;2022-12-07T05:30:30;20.13;;;7.13;;
45103;SDS011;30865;51.288;4.572;2022-12-07T05:32:56;19.45;;;6.97;;
45103;SDS011;30865;51.288;4.572;2022-12-07T05:35:22;11.30;;;6.13;;
45103;SDS011;30865;51.288;4.572;2022-12-07T05:37:48;11.57;;;6.70;;
45103;SDS011;30865;51.288;4.572;2022-12-07T05:40:13;10.02;;;5.70;;
45103;SDS011;30865;51.288;4.572;2022-12-07T05:42:40;13.43;;;6.72;;
45103;SDS011;30865;51.288;4.572;2022-12-07T05:45:06;15.93;;;6.78;;
45103;SDS011;30865;51.288;4.572;2022-12-07T05:47:32;20.63;;;7.30;;
45103;SDS011;30865;51.288;4.572;2022-12-07T05:49:58;12.73;;;6.85;;
45103;SDS011;30865;51.288;4.572;2022-12-07T05:52:23;11.75;;;6.22;;
45103;SDS011;30865;51.288;4.572;2022-12-07T05:54:49;17.60;;;7.20;;
45103;SDS011;30865;51.288;4.572;2022-12-07T05:57:14;22.92;;;6.95;;
45103;SDS011;30865;51.288;4.572;2022-12-07T05:59:40;20.08;;;6.70;;
45103;SDS011;30865;51.288;4.572;2022-12-07T06:02:07;12.32;;;6.03;;
45103;SDS011;30865;51.288;4.572;2022-12-07T06:04:35;7.85;;;5.43;;
45103;SDS011;30865;51.288;4.572;2022-12-07T06:07:03;9.77;;;6.38;;
45103;SDS011;30865;51.288;4.572;2022-12-07T06:09:29;11.25;;;6.88;;
45103;SDS011;30865;51.288;4.572;2022-12-07T06:11:56;15.05;;;7.00;;
45103;SDS011;30865;51.288;4.572;2022-12-07T06:14:41;17.70;;;7.57;;
45103;SDS011;30865;51.288;4.572;2022-12-07T06:17:06;11.27;;;6.55;;
45103;SDS011;30865;51.288;4.572;2022-12-07T06:19:32;12.32;;;6.50;;
45103;SDS011;30865;51.288;4.572;2022-12-07T06:21:58;8.60;;;5.32;;
45103;SDS011;30865;51.288;4.572;2022-12-07T06:24:24;18.60;;;6.30;;
45103;SDS011;30865;51.288;4.572;2022-12-07T06:26:50;11.27;;;6.63;;
45103;SDS011;30865;51.288;4.572;2022-12-07T06:29:16;12.88;;;6.03;;
45103;SDS011;30865;51.288;4.572;2022-12-07T06:31:42;22.30;;;6.25;;
45103;SDS011;30865;51.288;4.572;2022-12-07T06:34:11;15.90;;;7.22;;
45103;SDS011;30865;51.288;4.572;2022-12-07T06:39:04;10.48;;;5.53;;
45103;SDS011;30865;51.288;4.572;2022-12-07T06:41:30;16.48;;;5.90;;
45103;SDS011;30865;51.288;4.572;2022-12-07T06:43:56;15.00;;;6.30;;
45103;SDS011;30865;51.288;4.572;2022-12-07T06:46:21;21.83;;;8.02;;
45103;SDS011;30865;51.288;4.572;2022-12-07T06:48:47;20.30;;;7.60;;
45103;SDS011;30865;51.288;4.572;2022-12-07T06:51:13;19.30;;;7.22;;
45103;SDS011;30865;51.288;4.572;2022-12-07T06:53:38;18.67;;;8.27;;
45103;SDS011;30865;51.288;4.572;2022-12-07T06:56:04;15.55;;;7.32;;
45103;SDS011;30865;51.288;4.572;2022-12-07T06:58:30;14.82;;;8.07;;
45103;SDS011;30865;51.288;4.572;2022-12-07T07:00:56;17.52;;;8.27;;
45103;SDS011;30865;51.288;4.572;2022-12-07T07:03:21;12.60;;;7.13;;
45103;SDS011;30865;51.288;4.572;2022-12-07T07:05:47;15.68;;;6.47;;
45103;SDS011;30865;51.288;4.572;2022-12-07T07:08:12;18.63;;;7.65;;
45103;SDS011;30865;51.288;4.572;2022-12-07T07:10:39;13.50;;;7.15;;
45103;SDS011;30865;51.288;4.572;2022-12-07T07:13:04;14.30;;;6.43;;
45103;SDS011;30865;51.288;4.572;2022-12-07T07:15:31;20.25;;;7.13;;
45103;SDS011;30865;51.288;4.572;2022-12-07T07:17:57;13.07;;;6.47;;
45103;SDS011;30865;51.288;4.572;2022-12-07T07:20:23;22.83;;;7.00;;
45103;SDS011;30865;51.288;4.572;2022-12-07T07:22:48;19.42;;;8.77;;
45103;SDS011;30865;51.288;4.572;2022-12-07T07:25:14;30.48;;;9.18;;
45103;SDS011;30865;51.288;4.572;2022-12-07T07:27:42;19.48;;;8.25;;
45103;SDS011;30865;51.288;4.572;2022-12-07T07:30:08;25.00;;;7.32;;
45103;SDS011;30865;51.288;4.572;2022-12-07T07:32:34;13.85;;;6.72;;
45103;SDS011;30865;51.288;4.572;2022-12-07T07:34:59;15.25;;;6.97;;
45103;SDS011;30865;51.288;4.572;2022-12-07T07:37:25;16.58;;;6.60;;
45103;SDS011;30865;51.288;4.572;2022-12-07T07:39:51;17.95;;;6.90;;
45103;SDS011;30865;51.288;4.572;2022-12-07T07:42:16;17.92;;;7.18;;
45103;SDS011;30865;51.288;4.572;2022-12-07T07:44:42;15.65;;;6.50;;
45103;SDS011;30865;51.288;4.572;2022-12-07T07:47:07;11.65;;;5.68;;
45103;SDS011;30865;51.288;4.572;2022-12-07T07:49:33;19.08;;;6.55;;
45103;SDS011;30865;51.288;4.572;2022-12-07T07:51:58;14.65;;;6.82;;
45103;SDS011;30865;51.288;4.572;2022-12-07T07:54:24;11.63;;;5.78;;
45103;SDS011;30865;51.288;4.572;2022-12-07T07:56:49;17.17;;;7.43;;
45103;SDS011;30865;51.288;4.572;2022-12-07T07:59:15;9.65;;;5.18;;
45103;SDS011;30865;51.288;4.572;2022-12-07T08:01:41;12.25;;;5.35;;
45103;SDS011;30865;51.288;4.572;2022-12-07T08:04:06;14.93;;;5.93;;
45103;SDS011;30865;51.288;4.572;2022-12-07T08:06:32;12.80;;;4.93;;
45103;SDS011;30865;51.288;4.572;2022-12-07T08:08:57;11.02;;;5.28;;
45103;SDS011;30865;51.288;4.572;2022-12-07T08:11:23;12.18;;;5.93;;
45103;SDS011;30865;51.288;4.572;2022-12-07T08:13:49;8.30;;;5.35;;
45103;SDS011;30865;51.288;4.572;2022-12-07T08:16:15;11.38;;;5.85;;
45103;SDS011;30865;51.288;4.572;2022-12-07T08:18:41;12.40;;;5.63;;
45103;SDS011;30865;51.288;4.572;2022-12-07T08:21:12;14.60;;;5.32;;
45103;SDS011;30865;51.288;4.572;2022-12-07T08:23:39;11.88;;;5.68;;
45103;SDS011;30865;51.288;4.572;2022-12-07T08:26:06;9.60;;;6.35;;
45103;SDS011;30865;51.288;4.572;2022-12-07T08:28:33;10.73;;;5.78;;
45103;SDS011;30865;51.288;4.572;2022-12-07T08:31:00;16.02;;;6.18;;
45103;SDS011;30865;51.288;4.572;2022-12-07T08:33:30;16.15;;;6.03;;
45103;SDS011;30865;51.288;4.572;2022-12-07T08:36:00;10.60;;;5.20;;
45103;SDS011;30865;51.288;4.572;2022-12-07T08:38:26;11.73;;;6.32;;
45103;SDS011;30865;51.288;4.572;2022-12-07T08:40:55;13.68;;;5.00;;
45103;SDS011;30865;51.288;4.572;2022-12-07T08:43:22;18.17;;;6.22;;
45103;SDS011;30865;51.288;4.572;2022-12-07T08:45:48;9.20;;;5.50;;
45103;SDS011;30865;51.288;4.572;2022-12-07T08:50:46;8.98;;;5.30;;
45103;SDS011;30865;51.288;4.572;2022-12-07T08:53:13;8.68;;;5.53;;
45103;SDS011;30865;51.288;4.572;2022-12-07T08:55:38;11.93;;;6.35;;
45103;SDS011;30865;51.288;4.572;2022-12-07T08:58:04;9.57;;;5.53;;
45103;SDS011;30865;51.288;4.572;2022-12-07T09:00:29;15.75;;;5.40;;
45103;SDS011;30865;51.288;4.572;2022-12-07T09:02:55;16.63;;;5.82;;
45103;SDS011;30865;51.288;4.572;2022-12-07T09:05:20;8.68;;;5.43;;
45103;SDS011;30865;51.288;4.572;2022-12-07T09:07:48;11.57;;;5.80;;
45103;SDS011;30865;51.288;4.572;2022-12-07T09:10:16;22.08;;;6.68;;
45103;SDS011;30865;51.288;4.572;2022-12-07T09:12:42;16.25;;;5.82;;
45103;SDS011;30865;51.288;4.572;2022-12-07T09:15:08;18.27;;;5.63;;
45103;SDS011;30865;51.288;4.572;2022-12-07T09:17:34;11.27;;;5.00;;
45103;SDS011;30865;51.288;4.572;2022-12-07T09:20:00;11.85;;;5.60;;
45103;SDS011;30865;51.288;4.572;2022-12-07T09:22:30;11.82;;;5.18;;
45103;SDS011;30865;51.288;4.572;2022-12-07T09:24:57;33.92;;;6.90;;
45103;SDS011;30865;51.288;4.572;2022-12-07T09:27:23;16.20;;;6.40;;
45103;SDS011;30865;51.288;4.572;2022-12-07T09:29:49;11.18;;;6.50;;
45103;SDS011;30865;51.288;4.572;2022-12-07T09:32:14;8.05;;;5.20;;
45103;SDS011;30865;51.288;4.572;2022-12-07T09:34:40;11.13;;;5.38;;
45103;SDS011;30865;51.288;4.572;2022-12-07T09:37:05;11.30;;;6.07;;
45103;SDS011;30865;51.288;4.572;2022-12-07T09:39:31;15.63;;;6.20;;
45103;SDS011;30865;51.288;4.572;2022-12-07T09:41:57;13.95;;;6.25;;
45103;SDS011;30865;51.288;4.572;2022-12-07T09:44:25;11.25;;;6.20;;
45103;SDS011;30865;51.288;4.572;2022-12-07T09:46:51;14.52;;;6.65;;
45103;SDS011;30865;51.288;4.572;2022-12-07T09:49:19;10.00;;;5.53;;
45103;SDS011;30865;51.288;4.572;2022-12-07T09:51:46;11.93;;;6.88;;
45103;SDS011;30865;51.288;4.572;2022-12-07T09:54:13;10.45;;;5.55;;
45103;SDS011;30865;51.288;4.572;2022-12-07T09:56:40;9.35;;;5.70;;
45103;SDS011;30865;51.288;4.572;2022-12-07T09:59:09;15.25;;;6.43;;
45103;SDS011;30865;51.288;4.572;2022-12-07T10:01:41;20.27;;;6.25;;
45103;SDS011;30865;51.288;4.572;2022-12-07T10:04:15;11.73;;;5.68;;
45103;SDS011;30865;51.288;4.572;2022-12-07T10:06:44;9.85;;;4.70;;
45103;SDS011;30865;51.288;4.572;2022-12-07T10:09:11;18.05;;;6.22;;
45103;SDS011;30865;51.288;4.572;2022-12-07T10:12:23;14.45;;;5.10;;
45103;SDS011;30865;51.288;4.572;2022-12-07T10:14:35;10.48;;;5.03;;
45103;SDS011;30865;51.288;4.572;2022-12-07T10:17:36;10.23;;;5.97;;
45103;SDS011;30865;51.288;4.572;2022-12-07T10:22:37;16.23;;;4.90;;
45103;SDS011;30865;51.288;4.572;2022-12-07T10:25:17;6.85;;;4.10;;
45103;SDS011;30865;51.288;4.572;2022-12-07T10:27:44;8.93;;;3.45;;
45103;SDS011;30865;51.288;4.572;2022-12-07T10:30:23;14.32;;;4.10;;
45103;SDS011;30865;51.288;4.572;2022-12-07T10:32:48;6.22;;;3.00;;
45103;SDS011;30865;51.288;4.572;2022-12-07T10:35:27;5.10;;;3.10;;
45103;SDS011;30865;51.288;4.572;2022-12-07T10:37:54;4.23;;;2.83;;
45103;SDS011;30865;51.288;4.572;2022-12-07T10:40:33;6.72;;;4.00;;
45103;SDS011;30865;51.288;4.572;2022-12-07T10:43:01;5.75;;;2.70;;
45103;SDS011;30865;51.288;4.572;2022-12-07T10:45:28;4.28;;;2.65;;
45103;SDS011;30865;51.288;4.572;2022-12-07T11:04:55;4.88;;;2.40;;
45103;SDS011;30865;51.288;4.572;2022-12-07T11:10:31;14.60;;;3.10;;
45103;SDS011;30865;51.288;4.572;2022-12-07T11:13:12;12.07;;;2.90;;
45103;SDS011;30865;51.288;4.572;2022-12-07T11:18:50;6.28;;;3.13;;
45103;SDS011;30865;51.288;4.572;2022-12-07T11:21:20;7.20;;;3.00;;
45103;SDS011;30865;51.288;4.572;2022-12-07T11:34:56;6.03;;;2.85;;
45103;SDS011;30865;51.288;4.572;2022-12-07T11:37:32;9.63;;;3.30;;
45103;SDS011;30865;51.288;4.572;2022-12-07T11:40:04;10.45;;;3.42;;
45103;SDS011;30865;51.288;4.572;2022-12-07T11:42:33;5.40;;;3.30;;
45103;SDS011;30865;51.288;4.572;2022-12-07T11:45:17;8.25;;;2.88;;
45103;SDS011;30865;51.288;4.572;2022-12-07T11:47:56;6.82;;;3.58;;
45103;SDS011;30865;51.288;4.572;2022-12-07T11:50:37;4.65;;;3.25;;
45103;SDS011;30865;51.288;4.572;2022-12-07T11:58:36;7.72;;;2.55;;
45103;SDS011;30865;51.288;4.572;2022-12-07T12:03:40;7.35;;;3.03;;
45103;SDS011;30865;51.288;4.572;2022-12-07T12:06:09;4.05;;;2.10;;
45103;SDS011;30865;51.288;4.572;2022-12-07T12:08:39;15.50;;;3.05;;
45103;SDS011;30865;51.288;4.572;2022-12-07T12:22:37;4.95;;;2.83;;
45103;SDS011;30865;51.288;4.572;2022-12-07T12:25:06;7.57;;;3.47;;
45103;SDS011;30865;51.288;4.572;2022-12-07T12:27:41;5.75;;;3.55;;
45103;SDS011;30865;51.288;4.572;2022-12-07T12:30:32;6.18;;;4.00;;
45103;SDS011;30865;51.288;4.572;2022-12-07T12:33:02;7.93;;;4.10;;
45103;SDS011;30865;51.288;4.572;2022-12-07T12:35:31;10.53;;;4.43;;
45103;SDS011;30865;51.288;4.572;2022-12-07T12:40:50;5.20;;;3.78;;
45103;SDS011;30865;51.288;4.572;2022-12-07T12:49:14;12.00;;;4.35;;
45103;SDS011;30865;51.288;4.572;2022-12-07T12:51:43;10.18;;;4.03;;
45103;SDS011;30865;51.288;4.572;2022-12-07T12:59:21;12.25;;;4.28;;
45103;SDS011;30865;51.288;4.572;2022-12-07T13:01:48;9.77;;;3.80;;
45103;SDS011;30865;51.288;4.572;2022-12-07T13:04:34;12.23;;;3.50;;
45103;SDS011;30865;51.288;4.572;2022-12-07T13:07:13;6.35;;;3.15;;
45103;SDS011;30865;51.288;4.572;2022-12-07T13:10:22;9.07;;;3.63;;
45103;SDS011;30865;51.288;4.572;2022-12-07T13:20:51;5.28;;;3.47;;
45103;SDS011;30865;51.288;4.572;2022-12-07T13:29:06;6.47;;;3.78;;
45103;SDS011;30865;51.288;4.572;2022-12-07T13:31:38;8.13;;;4.10;;
45103;SDS011;30865;51.288;4.572;2022-12-07T13:37:08;8.15;;;3.78;;
45103;SDS011;30865;51.288;4.572;2022-12-07T13:39:51;10.80;;;3.95;;
45103;SDS011;30865;51.288;4.572;2022-12-07T13:42:26;4.90;;;3.35;;
45103;SDS011;30865;51.288;4.572;2022-12-07T13:44:57;5.65;;;3.00;;
45103;SDS011;30865;51.288;4.572;2022-12-07T13:50:22;6.65;;;3.80;;
45103;SDS011;30865;51.288;4.572;2022-12-07T13:52:49;8.88;;;3.75;;
45103;SDS011;30865;51.288;4.572;2022-12-07T13:55:16;9.30;;;4.03;;
45103;SDS011;30865;51.288;4.572;2022-12-07T13:57:42;9.38;;;4.20;;
45103;SDS011;30865;51.288;4.572;2022-12-07T14:00:30;8.50;;;4.40;;
45103;SDS011;30865;51.288;4.572;2022-12-07T14:03:00;9.20;;;4.40;;
45103;SDS011;30865;51.288;4.572;2022-12-07T14:05:29;23.75;;;5.28;;
45103;SDS011;30865;51.288;4.572;2022-12-07T14:12:50;14.07;;;4.45;;
45103;SDS011;30865;51.288;4.572;2022-12-07T14:15:21;9.68;;;3.40;;
45103;SDS011;30865;51.288;4.572;2022-12-07T14:17:52;7.15;;;3.50;;
45103;SDS011;30865;51.288;4.572;2022-12-07T14:20:29;6.80;;;4.10;;
45103;SDS011;30865;51.288;4.572;2022-12-07T14:23:00;6.70;;;3.83;;
45103;SDS011;30865;51.288;4.572;2022-12-07T14:25:43;12.07;;;3.90;;
45103;SDS011;30865;51.288;4.572;2022-12-07T14:28:23;9.02;;;3.88;;
45103;SDS011;30865;51.288;4.572;2022-12-07T14:30:54;10.73;;;4.63;;
45103;SDS011;30865;51.288;4.572;2022-12-07T14:33:19;9.95;;;4.47;;
45103;SDS011;30865;51.288;4.572;2022-12-07T14:35:46;8.45;;;4.00;;
45103;SDS011;30865;51.288;4.572;2022-12-07T14:38:12;7.70;;;4.63;;
45103;SDS011;30865;51.288;4.572;2022-12-07T14:40:38;6.03;;;4.22;;
45103;SDS011;30865;51.288;4.572;2022-12-07T14:43:13;9.60;;;4.40;;
45103;SDS011;30865;51.288;4.572;2022-12-07T14:45:41;6.45;;;4.15;;
45103;SDS011;30865;51.288;4.572;2022-12-07T14:48:07;8.80;;;4.25;;
45103;SDS011;30865;51.288;4.572;2022-12-07T14:50:37;11.30;;;3.80;;
45103;SDS011;30865;51.288;4.572;2022-12-07T14:53:10;8.65;;;4.75;;
45103;SDS011;30865;51.288;4.572;2022-12-07T14:55:39;6.80;;;4.32;;
45103;SDS011;30865;51.288;4.572;2022-12-07T14:58:04;6.72;;;4.38;;
45103;SDS011;30865;51.288;4.572;2022-12-07T15:00:30;7.93;;;3.75;;
45103;SDS011;30865;51.288;4.572;2022-12-07T15:02:56;10.60;;;4.38;;
45103;SDS011;30865;51.288;4.572;2022-12-07T15:05:22;15.50;;;4.22;;
45103;SDS011;30865;51.288;4.572;2022-12-07T15:07:48;8.02;;;4.30;;
45103;SDS011;30865;51.288;4.572;2022-12-07T15:10:18;7.60;;;4.18;;
45103;SDS011;30865;51.288;4.572;2022-12-07T15:12:46;11.70;;;5.50;;
45103;SDS011;30865;51.288;4.572;2022-12-07T15:15:12;9.27;;;4.90;;
45103;SDS011;30865;51.288;4.572;2022-12-07T15:17:37;6.65;;;4.65;;
45103;SDS011;30865;51.288;4.572;2022-12-07T15:20:03;7.78;;;4.43;;
45103;SDS011;30865;51.288;4.572;2022-12-07T15:22:30;9.48;;;4.90;;
45103;SDS011;30865;51.288;4.572;2022-12-07T15:24:56;9.32;;;5.80;;
45103;SDS011;30865;51.288;4.572;2022-12-07T15:27:22;11.05;;;5.10;;
45103;SDS011;30865;51.288;4.572;2022-12-07T15:29:47;8.93;;;5.30;;
45103;SDS011;30865;51.288;4.572;2022-12-07T15:32:13;6.80;;;4.40;;
45103;SDS011;30865;51.288;4.572;2022-12-07T15:34:38;10.18;;;4.80;;
45103;SDS011;30865;51.288;4.572;2022-12-07T15:37:04;8.32;;;4.43;;
45103;SDS011;30865;51.288;4.572;2022-12-07T15:39:30;8.23;;;4.30;;
45103;SDS011;30865;51.288;4.572;2022-12-07T15:41:55;7.05;;;4.05;;
45103;SDS011;30865;51.288;4.572;2022-12-07T15:44:21;8.25;;;3.78;;
45103;SDS011;30865;51.288;4.572;2022-12-07T15:47:05;5.78;;;3.65;;
45103;SDS011;30865;51.288;4.572;2022-12-07T15:49:31;8.40;;;3.88;;
45103;SDS011;30865;51.288;4.572;2022-12-07T15:51:56;6.57;;;4.00;;
45103;SDS011;30865;51.288;4.572;2022-12-07T15:54:24;10.02;;;4.07;;
45103;SDS011;30865;51.288;4.572;2022-12-07T15:56:53;8.80;;;4.20;;
45103;SDS011;30865;51.288;4.572;2022-12-07T15:59:19;8.05;;;4.63;;
45103;SDS011;30865;51.288;4.572;2022-12-07T16:01:44;10.75;;;5.70;;
45103;SDS011;30865;51.288;4.572;2022-12-07T16:04:11;7.70;;;4.22;;
45103;SDS011;30865;51.288;4.572;2022-12-07T16:06:36;8.68;;;4.30;;
45103;SDS011;30865;51.288;4.572;2022-12-07T16:09:02;9.00;;;4.55;;
45103;SDS011;30865;51.288;4.572;2022-12-07T16:11:28;10.18;;;4.97;;
45103;SDS011;30865;51.288;4.572;2022-12-07T16:13:54;6.38;;;3.85;;
45103;SDS011;30865;51.288;4.572;2022-12-07T16:16:20;8.65;;;4.43;;
45103;SDS011;30865;51.288;4.572;2022-12-07T16:18:47;7.72;;;4.72;;
45103;SDS011;30865;51.288;4.572;2022-12-07T16:21:13;9.57;;;5.35;;
45103;SDS011;30865;51.288;4.572;2022-12-07T16:23:39;9.10;;;4.95;;
45103;SDS011;30865;51.288;4.572;2022-12-07T16:26:06;7.63;;;5.05;;
45103;SDS011;30865;51.288;4.572;2022-12-07T16:28:39;7.70;;;4.95;;
45103;SDS011;30865;51.288;4.572;2022-12-07T16:31:06;6.93;;;4.18;;
45103;SDS011;30865;51.288;4.572;2022-12-07T16:33:34;8.05;;;4.80;;
45103;SDS011;30865;51.288;4.572;2022-12-07T16:36:00;7.78;;;4.03;;
45103;SDS011;30865;51.288;4.572;2022-12-07T16:38:26;11.73;;;5.53;;
45103;SDS011;30865;51.288;4.572;2022-12-07T16:40:52;13.05;;;5.63;;
45103;SDS011;30865;51.288;4.572;2022-12-07T16:43:18;9.07;;;5.03;;
45103;SDS011;30865;51.288;4.572;2022-12-07T16:45:44;11.25;;;5.63;;
45103;SDS011;30865;51.288;4.572;2022-12-07T16:48:11;11.77;;;5.90;;
45103;SDS011;30865;51.288;4.572;2022-12-07T16:50:41;8.98;;;5.60;;
45103;SDS011;30865;51.288;4.572;2022-12-07T16:53:08;11.23;;;6.07;;
45103;SDS011;30865;51.288;4.572;2022-12-07T16:55:38;9.95;;;5.40;;